sensor_id;sensor_type;location;lat;lon;timestamp;pressure;altitude;pressure_sealevel;temperature;humidity
11444;BME280;5778;47.856;12.154;2023-04-20T00:02:16;96239.44;;;5.53;100.00
11444;BME280;5778;47.856;12.154;2023-04-20T00:04:44;96237.22;;;5.50;100.00
11444;BME280;5778;47.856;12.154;2023-04-20T00:07:11;96239.09;;;5.49;100.00
11444;BME280;5778;47.856;12.154;2023-04-20T00:09:38;96233.53;;;5.39;100.00
11444;BME280;5778;47.856;12.154;2023-04-20T00:12:05;96231.56;;;5.35;100.00
11444;BME280;5778;47.856;12.154;2023-04-20T00:14:32;96225.31;;;5.47;100.00
11444;BME280;5778;47.856;12.154;2023-04-20T00:16:59;96226.47;;;5.51;100.00
11444;BME280;5778;47.856;12.154;2023-04-20T00:19:26;96224.66;;;5.52;100.00
11444;BME280;5778;47.856;12.154;2023-04-20T00:22:00;96213.63;;;5.55;100.00
11444;BME280;5778;47.856;12.154;2023-04-20T00:24:27;96211.00;;;5.55;100.00
11444;BME280;5778;47.856;12.154;2023-04-20T00:26:54;96213.06;;;5.53;100.00
11444;BME280;5778;47.856;12.154;2023-04-20T00:29:20;96201.94;;;5.51;100.00
11444;BME280;5778;47.856;12.154;2023-04-20T00:31:47;96203.75;;;5.50;100.00
11444;BME280;5778;47.856;12.154;2023-04-20T00:34:14;96198.41;;;5.57;100.00
11444;BME280;5778;47.856;12.154;2023-04-20T00:36:41;96201.84;;;5.57;100.00
11444;BME280;5778;47.856;12.154;2023-04-20T00:39:09;96188.22;;;5.60;100.00
11444;BME280;5778;47.856;12.154;2023-04-20T00:41:38;96189.47;;;5.58;100.00
11444;BME280;5778;47.856;12.154;2023-04-20T00:44:06;96186.81;;;5.58;100.00
11444;BME280;5778;47.856;12.154;2023-04-20T00:46:35;96188.84;;;5.44;100.00
11444;BME280;5778;47.856;12.154;2023-04-20T00:49:03;96188.41;;;5.47;100.00
11444;BME280;5778;47.856;12.154;2023-04-20T00:51:32;96178.72;;;5.41;100.00
11444;BME280;5778;47.856;12.154;2023-04-20T00:54:01;96173.56;;;5.35;100.00
11444;BME280;5778;47.856;12.154;2023-04-20T00:56:29;96166.78;;;5.39;100.00
11444;BME280;5778;47.856;12.154;2023-04-20T00:58:56;96164.63;;;5.36;100.00
11444;BME280;5778;47.856;12.154;2023-04-20T01:01:24;96159.63;;;5.46;100.00
11444;BME280;5778;47.856;12.154;2023-04-20T01:03:51;96148.53;;;5.55;100.00
11444;BME280;5778;47.856;12.154;2023-04-20T01:06:19;96145.31;;;5.53;100.00
11444;BME280;5778;47.856;12.154;2023-04-20T01:08:48;96144.16;;;5.49;100.00
11444;BME280;5778;47.856;12.154;2023-04-20T01:11:15;96137.91;;;5.44;100.00
11444;BME280;5778;47.856;12.154;2023-04-20T01:13:47;96135.16;;;5.39;100.00
11444;BME280;5778;47.856;12.154;2023-04-20T01:16:14;96138.03;;;5.37;100.00
11444;BME280;5778;47.856;12.154;2023-04-20T01:18:44;96131.81;;;5.32;100.00
11444;BME280;5778;47.856;12.154;2023-04-20T01:21:11;96135.47;;;5.31;100.00
11444;BME280;5778;47.856;12.154;2023-04-20T01:23:40;96139.16;;;5.30;100.00
11444;BME280;5778;47.856;12.154;2023-04-20T01:26:08;96139.03;;;5.36;100.00
11444;BME280;5778;47.856;12.154;2023-04-20T01:28:36;96137.78;;;5.39;100.00
11444;BME280;5778;47.856;12.154;2023-04-20T01:31:03;96127.72;;;5.36;100.00
11444;BME280;5778;47.856;12.154;2023-04-20T01:33:31;96121.25;;;5.32;100.00
11444;BME280;5778;47.856;12.154;2023-04-20T01:35:58;96118.63;;;5.32;100.00
11444;BME280;5778;47.856;12.154;2023-04-20T01:38:27;96118.69;;;5.14;100.00
11444;BME280;5778;47.856;12.154;2023-04-20T01:41:01;96118.00;;;5.18;100.00
11444;BME280;5778;47.856;12.154;2023-04-20T01:43:30;96118.09;;;5.12;100.00
11444;BME280;5778;47.856;12.154;2023-04-20T01:45:58;96109.16;;;5.13;100.00
11444;BME280;5778;47.856;12.154;2023-04-20T01:48:25;96102.88;;;5.14;100.00
11444;BME280;5778;47.856;12.154;2023-04-20T01:50:52;96108.41;;;5.24;100.00
11444;BME280;5778;47.856;12.154;2023-04-20T01:53:20;96104.75;;;5.25;100.00
11444;BME280;5778;47.856;12.154;2023-04-20T01:55:48;96106.34;;;5.26;100.00
11444;BME280;5778;47.856;12.154;2023-04-20T01:58:17;96095.81;;;5.26;100.00
11444;BME280;5778;47.856;12.154;2023-04-20T02:00:44;96105.00;;;5.35;100.00
11444;BME280;5778;47.856;12.154;2023-04-20T02:03:12;96102.13;;;5.36;100.00
11444;BME280;5778;47.856;12.154;2023-04-20T02:05:39;96102.03;;;5.43;100.00
11444;BME280;5778;47.856;12.154;2023-04-20T02:08:06;96095.16;;;5.42;100.00
11444;BME280;5778;47.856;12.154;2023-04-20T02:10:33;96090.47;;;5.44;100.00
11444;BME280;5778;47.856;12.154;2023-04-20T02:13:00;96090.47;;;5.44;100.00
11444;BME280;5778;47.856;12.154;2023-04-20T02:15:31;96101.34;;;5.36;100.00
11444;BME280;5778;47.856;12.154;2023-04-20T02:17:58;96090.22;;;5.34;100.00
11444;BME280;5778;47.856;12.154;2023-04-20T02:20:25;96094.91;;;5.32;100.00
11444;BME280;5778;47.856;12.154;2023-04-20T02:22:52;96096.38;;;5.28;100.00
11444;BME280;5778;47.856;12.154;2023-04-20T02:25:19;96098.31;;;5.21;100.00
11444;BME280;5778;47.856;12.154;2023-04-20T02:27:47;96097.06;;;5.23;100.00
11444;BME280;5778;47.856;12.154;2023-04-20T02:30:14;96094.41;;;5.12;100.00
11444;BME280;5778;47.856;12.154;2023-04-20T02:32:42;96101.13;;;5.08;100.00
11444;BME280;5778;47.856;12.154;2023-04-20T02:35:09;96098.34;;;5.03;100.00
11444;BME280;5778;47.856;12.154;2023-04-20T02:37:36;96102.94;;;5.07;100.00
11444;BME280;5778;47.856;12.154;2023-04-20T02:40:05;96100.53;;;5.06;100.00
11444;BME280;5778;47.856;12.154;2023-04-20T02:42:34;96095.25;;;5.06;100.00
11444;BME280;5778;47.856;12.154;2023-04-20T02:45:04;96096.44;;;5.10;100.00
11444;BME280;5778;47.856;12.154;2023-04-20T02:47:32;96087.41;;;5.17;100.00
11444;BME280;5778;47.856;12.154;2023-04-20T02:50:00;96083.75;;;5.18;100.00
11444;BME280;5778;47.856;12.154;2023-04-20T02:52:29;96081.56;;;5.15;100.00
11444;BME280;5778;47.856;12.154;2023-04-20T02:54:58;96083.38;;;5.15;100.00
11444;BME280;5778;47.856;12.154;2023-04-20T02:57:27;96077.09;;;5.16;100.00
11444;BME280;5778;47.856;12.154;2023-04-20T02:59:55;96084.41;;;5.14;100.00
11444;BME280;5778;47.856;12.154;2023-04-20T03:02:36;96071.16;;;5.20;100.00
11444;BME280;5778;47.856;12.154;2023-04-20T03:05:05;96067.91;;;5.18;100.00
11444;BME280;5778;47.856;12.154;2023-04-20T03:07:39;96064.09;;;5.03;100.00
11444;BME280;5778;47.856;12.154;2023-04-20T03:10:09;96067.75;;;5.02;100.00
11444;BME280;5778;47.856;12.154;2023-04-20T03:12:50;96066.59;;;4.98;100.00
11444;BME280;5778;47.856;12.154;2023-04-20T03:15:19;96064.50;;;4.88;100.00
11444;BME280;5778;47.856;12.154;2023-04-20T03:18:10;96070.63;;;5.00;100.00
11444;BME280;5778;47.856;12.154;2023-04-20T03:20:39;96069.44;;;4.96;100.00
11444;BME280;5778;47.856;12.154;2023-04-20T03:23:06;96058.91;;;4.96;100.00
11444;BME280;5778;47.856;12.154;2023-04-20T03:25:34;96057.97;;;4.91;100.00
11444;BME280;5778;47.856;12.154;2023-04-20T03:28:06;96059.00;;;4.90;100.00
11444;BME280;5778;47.856;12.154;2023-04-20T03:30:36;96068.66;;;4.78;100.00
11444;BME280;5778;47.856;12.154;2023-04-20T03:33:09;96063.13;;;4.86;100.00
11444;BME280;5778;47.856;12.154;2023-04-20T03:35:36;96057.91;;;4.79;100.00
11444;BME280;5778;47.856;12.154;2023-04-20T03:38:05;96054.19;;;4.87;100.00
11444;BME280;5778;47.856;12.154;2023-04-20T03:40:33;96056.94;;;4.92;100.00
11444;BME280;5778;47.856;12.154;2023-04-20T03:43:01;96053.97;;;4.88;100.00
11444;BME280;5778;47.856;12.154;2023-04-20T03:45:28;96064.00;;;4.80;100.00
11444;BME280;5778;47.856;12.154;2023-04-20T03:47:55;96057.91;;;4.79;100.00
11444;BME280;5778;47.856;12.154;2023-04-20T03:50:23;96050.16;;;4.84;100.00
11444;BME280;5778;47.856;12.154;2023-04-20T03:52:50;96050.03;;;4.79;100.00
11444;BME280;5778;47.856;12.154;2023-04-20T03:55:20;96046.47;;;4.74;100.00
11444;BME280;5778;47.856;12.154;2023-04-20T03:57:54;96047.59;;;4.78;100.00
11444;BME280;5778;47.856;12.154;2023-04-20T04:00:22;96044.25;;;4.71;100.00
11444;BME280;5778;47.856;12.154;2023-04-20T04:02:52;96044.81;;;4.73;100.00
11444;BME280;5778;47.856;12.154;2023-04-20T04:05:25;96046.69;;;4.72;100.00
11444;BME280;5778;47.856;12.154;2023-04-20T04:07:52;96035.78;;;4.69;100.00
11444;BME280;5778;47.856;12.154;2023-04-20T04:10:21;96042.44;;;4.71;100.00
11444;BME280;5778;47.856;12.154;2023-04-20T04:12:48;96045.50;;;4.68;100.00
11444;BME280;5778;47.856;12.154;2023-04-20T04:15:15;96039.41;;;4.68;100.00
11444;BME280;5778;47.856;12.154;2023-04-20T04:17:52;96032.41;;;4.62;100.00
11444;BME280;5778;47.856;12.154;2023-04-20T04:20:19;96031.03;;;4.59;100.00
11444;BME280;5778;47.856;12.154;2023-04-20T04:22:47;96046.78;;;4.48;100.00
11444;BME280;5778;47.856;12.154;2023-04-20T04:25:30;96047.22;;;4.63;100.00
11444;BME280;5778;47.856;12.154;2023-04-20T04:27:58;96033.78;;;4.64;100.00
11444;BME280;5778;47.856;12.154;2023-04-20T04:30:27;96031.97;;;4.65;100.00
11444;BME280;5778;47.856;12.154;2023-04-20T04:32:55;96029.97;;;4.78;100.00
11444;BME280;5778;47.856;12.154;2023-04-20T04:35:25;96023.63;;;4.68;100.00
11444;BME280;5778;47.856;12.154;2023-04-20T04:37:53;96036.56;;;4.69;100.00
11444;BME280;5778;47.856;12.154;2023-04-20T04:40:21;96028.09;;;4.67;100.00
11444;BME280;5778;47.856;12.154;2023-04-20T04:42:53;96030.88;;;4.54;100.00
11444;BME280;5778;47.856;12.154;2023-04-20T04:45:21;96025.75;;;4.59;100.00
11444;BME280;5778;47.856;12.154;2023-04-20T04:47:50;96023.72;;;4.61;100.00
11444;BME280;5778;47.856;12.154;2023-04-20T04:50:18;96016.13;;;4.53;100.00
11444;BME280;5778;47.856;12.154;2023-04-20T04:52:46;96012.38;;;4.61;100.00
11444;BME280;5778;47.856;12.154;2023-04-20T04:55:14;96009.16;;;4.59;100.00
11444;BME280;5778;47.856;12.154;2023-04-20T04:57:40;96005.06;;;4.63;100.00
11444;BME280;5778;47.856;12.154;2023-04-20T05:00:10;96000.41;;;4.76;100.00
11444;BME280;5778;47.856;12.154;2023-04-20T05:02:37;96006.22;;;4.67;100.00
11444;BME280;5778;47.856;12.154;2023-04-20T05:05:06;96000.53;;;4.70;100.00
11444;BME280;5778;47.856;12.154;2023-04-20T05:07:34;95999.47;;;4.71;100.00
11444;BME280;5778;47.856;12.154;2023-04-20T05:10:00;96004.63;;;4.66;100.00
11444;BME280;5778;47.856;12.154;2023-04-20T05:12:27;95999.91;;;4.68;100.00
11444;BME280;5778;47.856;12.154;2023-04-20T05:15:09;96004.00;;;4.82;100.00
11444;BME280;5778;47.856;12.154;2023-04-20T05:17:36;96016.47;;;4.75;100.00
11444;BME280;5778;47.856;12.154;2023-04-20T05:20:04;96016.34;;;4.81;100.00
11444;BME280;5778;47.856;12.154;2023-04-20T05:22:32;96018.13;;;4.87;100.00
11444;BME280;5778;47.856;12.154;2023-04-20T05:25:00;96012.47;;;4.84;100.00
11444;BME280;5778;47.856;12.154;2023-04-20T05:27:27;96008.72;;;4.91;100.00
11444;BME280;5778;47.856;12.154;2023-04-20T05:29:53;96014.81;;;4.92;100.00
11444;BME280;5778;47.856;12.154;2023-04-20T05:32:22;96015.59;;;4.92;100.00
11444;BME280;5778;47.856;12.154;2023-04-20T05:34:49;96010.22;;;4.87;100.00
11444;BME280;5778;47.856;12.154;2023-04-20T05:37:16;96011.00;;;4.88;100.00
11444;BME280;5778;47.856;12.154;2023-04-20T05:39:43;96004.13;;;4.87;100.00
11444;BME280;5778;47.856;12.154;2023-04-20T05:42:10;96009.06;;;4.95;100.00
11444;BME280;5778;47.856;12.154;2023-04-20T05:44:37;96013.75;;;4.93;100.00
11444;BME280;5778;47.856;12.154;2023-04-20T05:47:05;96006.06;;;4.80;100.00
11444;BME280;5778;47.856;12.154;2023-04-20T05:49:34;96002.47;;;4.74;100.00
11444;BME280;5778;47.856;12.154;2023-04-20T05:52:01;96007.38;;;4.71;100.00
11444;BME280;5778;47.856;12.154;2023-04-20T05:54:28;96008.06;;;4.66;100.00
11444;BME280;5778;47.856;12.154;2023-04-20T05:56:55;96016.66;;;4.73;100.00
11444;BME280;5778;47.856;12.154;2023-04-20T05:59:23;96015.06;;;4.72;100.00
11444;BME280;5778;47.856;12.154;2023-04-20T06:01:51;96010.25;;;4.69;100.00
11444;BME280;5778;47.856;12.154;2023-04-20T06:04:18;96010.88;;;4.83;100.00
11444;BME280;5778;47.856;12.154;2023-04-20T06:06:46;96005.09;;;4.74;100.00
11444;BME280;5778;47.856;12.154;2023-04-20T06:09:13;96006.56;;;4.70;100.00
11444;BME280;5778;47.856;12.154;2023-04-20T06:11:40;96005.25;;;4.79;100.00
11444;BME280;5778;47.856;12.154;2023-04-20T06:14:07;96009.66;;;4.97;100.00
11444;BME280;5778;47.856;12.154;2023-04-20T06:16:36;96009.78;;;5.02;100.00
11444;BME280;5778;47.856;12.154;2023-04-20T06:19:03;95999.44;;;4.89;100.00
11444;BME280;5778;47.856;12.154;2023-04-20T06:21:32;96000.94;;;4.96;100.00
11444;BME280;5778;47.856;12.154;2023-04-20T06:24:00;95997.28;;;4.97;100.00
11444;BME280;5778;47.856;12.154;2023-04-20T06:26:27;95998.22;;;5.03;100.00
11444;BME280;5778;47.856;12.154;2023-04-20T06:28:54;95997.41;;;5.02;100.00
11444;BME280;5778;47.856;12.154;2023-04-20T06:31:22;95991.47;;;5.07;100.00
11444;BME280;5778;47.856;12.154;2023-04-20T06:33:49;95990.06;;;4.93;100.00
11444;BME280;5778;47.856;12.154;2023-04-20T06:36:16;95986.31;;;5.00;100.00
11444;BME280;5778;47.856;12.154;2023-04-20T06:38:43;95985.25;;;5.01;100.00
11444;BME280;5778;47.856;12.154;2023-04-20T06:41:13;95982.00;;;5.29;100.00
11444;BME280;5778;47.856;12.154;2023-04-20T06:43:40;95978.53;;;5.17;100.00
11444;BME280;5778;47.856;12.154;2023-04-20T06:46:09;95982.19;;;5.16;100.00
11444;BME280;5778;47.856;12.154;2023-04-20T06:48:36;95977.88;;;5.21;100.00
11444;BME280;5778;47.856;12.154;2023-04-20T06:51:03;95982.31;;;5.21;100.00
11444;BME280;5778;47.856;12.154;2023-04-20T06:53:31;95988.06;;;5.29;100.00
11444;BME280;5778;47.856;12.154;2023-04-20T06:55:58;95987.50;;;5.39;100.00
11444;BME280;5778;47.856;12.154;2023-04-20T06:58:26;95982.13;;;5.34;100.00
11444;BME280;5778;47.856;12.154;2023-04-20T07:00:53;95985.56;;;5.23;100.00
11444;BME280;5778;47.856;12.154;2023-04-20T07:03:20;95986.69;;;5.27;100.00
11444;BME280;5778;47.856;12.154;2023-04-20T07:05:47;95979.69;;;5.21;100.00
11444;BME280;5778;47.856;12.154;2023-04-20T07:08:16;95971.53;;;5.11;100.00
11444;BME280;5778;47.856;12.154;2023-04-20T07:10:44;95974.31;;;5.39;100.00
11444;BME280;5778;47.856;12.154;2023-04-20T07:13:14;95967.34;;;5.44;100.00
11444;BME280;5778;47.856;12.154;2023-04-20T07:15:43;95971.69;;;5.39;100.00
11444;BME280;5778;47.856;12.154;2023-04-20T07:18:11;95963.66;;;5.45;100.00
11444;BME280;5778;47.856;12.154;2023-04-20T07:20:38;95956.09;;;5.49;100.00
11444;BME280;5778;47.856;12.154;2023-04-20T07:23:07;95957.81;;;5.32;100.00
11444;BME280;5778;47.856;12.154;2023-04-20T07:25:34;95949.13;;;5.54;100.00
11444;BME280;5778;47.856;12.154;2023-04-20T07:28:02;95948.78;;;5.74;100.00
11444;BME280;5778;47.856;12.154;2023-04-20T07:30:29;95950.63;;;5.85;100.00
11444;BME280;5778;47.856;12.154;2023-04-20T07:32:58;95951.19;;;5.87;100.00
11444;BME280;5778;47.856;12.154;2023-04-20T07:35:25;95952.00;;;5.87;100.00
11444;BME280;5778;47.856;12.154;2023-04-20T07:37:53;95954.38;;;6.00;100.00
11444;BME280;5778;47.856;12.154;2023-04-20T07:40:20;95954.31;;;5.84;100.00
11444;BME280;5778;47.856;12.154;2023-04-20T07:42:47;95949.00;;;5.95;100.00
11444;BME280;5778;47.856;12.154;2023-04-20T07:45:13;95941.34;;;5.94;100.00
11444;BME280;5778;47.856;12.154;2023-04-20T07:47:40;95941.50;;;6.15;100.00
11444;BME280;5778;47.856;12.154;2023-04-20T07:50:12;95943.00;;;6.11;100.00
11444;BME280;5778;47.856;12.154;2023-04-20T07:52:39;95936.00;;;6.17;100.00
11444;BME280;5778;47.856;12.154;2023-04-20T07:55:07;95942.41;;;6.21;100.00
11444;BME280;5778;47.856;12.154;2023-04-20T07:57:36;95941.00;;;6.30;100.00
11444;BME280;5778;47.856;12.154;2023-04-20T08:00:04;95942.88;;;6.18;100.00
11444;BME280;5778;47.856;12.154;2023-04-20T08:02:38;95937.91;;;6.33;100.00
11444;BME280;5778;47.856;12.154;2023-04-20T08:05:05;95935.00;;;6.34;100.00
11444;BME280;5778;47.856;12.154;2023-04-20T08:07:34;95936.56;;;6.47;100.00
11444;BME280;5778;47.856;12.154;2023-04-20T08:10:03;95943.56;;;6.53;100.00
11444;BME280;5778;47.856;12.154;2023-04-20T08:12:30;95948.28;;;6.51;100.00
11444;BME280;5778;47.856;12.154;2023-04-20T08:14:57;95941.84;;;6.47;100.00
11444;BME280;5778;47.856;12.154;2023-04-20T08:17:26;95949.56;;;6.48;100.00
11444;BME280;5778;47.856;12.154;2023-04-20T08:19:53;95943.41;;;6.59;100.00
11444;BME280;5778;47.856;12.154;2023-04-20T08:22:20;95949.84;;;6.63;100.00
11444;BME280;5778;47.856;12.154;2023-04-20T08:24:50;95952.69;;;6.73;100.00
11444;BME280;5778;47.856;12.154;2023-04-20T08:27:17;95944.59;;;6.52;100.00
11444;BME280;5778;47.856;12.154;2023-04-20T08:29:44;95950.41;;;6.65;100.00
11444;BME280;5778;47.856;12.154;2023-04-20T08:32:11;95948.94;;;6.58;100.00
11444;BME280;5778;47.856;12.154;2023-04-20T08:34:38;95939.06;;;6.65;100.00
11444;BME280;5778;47.856;12.154;2023-04-20T08:37:05;95936.66;;;6.80;100.00
11444;BME280;5778;47.856;12.154;2023-04-20T08:39:32;95934.41;;;6.72;100.00
11444;BME280;5778;47.856;12.154;2023-04-20T08:42:01;95944.84;;;6.78;100.00
11444;BME280;5778;47.856;12.154;2023-04-20T08:44:43;95938.38;;;7.02;100.00
11444;BME280;5778;47.856;12.154;2023-04-20T08:47:10;95934.78;;;7.08;100.00
11444;BME280;5778;47.856;12.154;2023-04-20T08:49:37;95932.78;;;6.99;100.00
11444;BME280;5778;47.856;12.154;2023-04-20T08:52:05;95936.69;;;6.96;100.00
11444;BME280;5778;47.856;12.154;2023-04-20T08:54:45;95938.34;;;6.86;100.00
11444;BME280;5778;47.856;12.154;2023-04-20T08:57:13;95943.91;;;6.84;100.00
11444;BME280;5778;47.856;12.154;2023-04-20T08:59:44;95946.13;;;6.76;100.00
11444;BME280;5778;47.856;12.154;2023-04-20T09:02:12;95950.19;;;6.83;100.00
11444;BME280;5778;47.856;12.154;2023-04-20T09:04:42;95943.81;;;6.96;100.00
11444;BME280;5778;47.856;12.154;2023-04-20T09:07:16;95944.13;;;6.83;100.00
11444;BME280;5778;47.856;12.154;2023-04-20T09:09:53;95943.34;;;6.99;100.00
11444;BME280;5778;47.856;12.154;2023-04-20T09:12:23;95946.47;;;6.96;100.00
11444;BME280;5778;47.856;12.154;2023-04-20T09:18:12;95947.53;;;7.11;100.00
11444;BME280;5778;47.856;12.154;2023-04-20T09:20:40;95949.38;;;7.11;100.00
11444;BME280;5778;47.856;12.154;2023-04-20T09:23:10;95953.19;;;7.03;100.00
11444;BME280;5778;47.856;12.154;2023-04-20T09:25:37;95943.63;;;6.86;100.00
11444;BME280;5778;47.856;12.154;2023-04-20T09:28:06;95947.72;;;6.77;100.00
11444;BME280;5778;47.856;12.154;2023-04-20T09:30:38;95950.06;;;6.90;100.00
11444;BME280;5778;47.856;12.154;2023-04-20T09:33:12;95942.72;;;6.92;100.00
11444;BME280;5778;47.856;12.154;2023-04-20T09:35:39;95942.13;;;6.90;100.00
11444;BME280;5778;47.856;12.154;2023-04-20T09:38:07;95944.72;;;7.18;100.00
11444;BME280;5778;47.856;12.154;2023-04-20T09:40:34;95936.00;;;7.34;100.00
11444;BME280;5778;47.856;12.154;2023-04-20T09:43:23;95946.41;;;7.40;100.00
11444;BME280;5778;47.856;12.154;2023-04-20T09:45:56;95937.91;;;7.22;100.00
11444;BME280;5778;47.856;12.154;2023-04-20T09:48:23;95951.00;;;7.28;100.00
11444;BME280;5778;47.856;12.154;2023-04-20T09:50:51;95946.25;;;7.30;100.00
11444;BME280;5778;47.856;12.154;2023-04-20T09:53:27;95945.13;;;7.26;100.00
11444;BME280;5778;47.856;12.154;2023-04-20T09:55:57;95947.22;;;7.41;100.00
11444;BME280;5778;47.856;12.154;2023-04-20T09:58:27;95949.88;;;7.41;100.00
11444;BME280;5778;47.856;12.154;2023-04-20T10:00:55;95945.75;;;7.50;100.00
11444;BME280;5778;47.856;12.154;2023-04-20T10:03:59;95946.81;;;7.49;100.00
11444;BME280;5778;47.856;12.154;2023-04-20T10:06:27;95944.88;;;7.61;100.00
11444;BME280;5778;47.856;12.154;2023-04-20T10:08:55;95947.75;;;7.76;100.00
11444;BME280;5778;47.856;12.154;2023-04-20T10:11:24;95938.34;;;7.85;100.00
11444;BME280;5778;47.856;12.154;2023-04-20T10:13:53;95937.91;;;7.93;100.00
11444;BME280;5778;47.856;12.154;2023-04-20T10:16:20;95934.06;;;8.00;100.00
11444;BME280;5778;47.856;12.154;2023-04-20T10:18:57;95944.88;;;7.77;100.00
11444;BME280;5778;47.856;12.154;2023-04-20T10:21:25;95943.31;;;7.81;100.00
11444;BME280;5778;47.856;12.154;2023-04-20T10:23:53;95938.22;;;7.96;100.00
11444;BME280;5778;47.856;12.154;2023-04-20T10:26:21;95930.50;;;8.11;100.00
11444;BME280;5778;47.856;12.154;2023-04-20T10:28:48;95931.94;;;8.02;100.00
11444;BME280;5778;47.856;12.154;2023-04-20T10:31:18;95930.72;;;7.88;100.00
11444;BME280;5778;47.856;12.154;2023-04-20T10:34:12;95931.56;;;7.56;100.00
11444;BME280;5778;47.856;12.154;2023-04-20T10:36:40;95930.66;;;7.83;100.00
11444;BME280;5778;47.856;12.154;2023-04-20T10:39:14;95928.09;;;8.10;100.00
11444;BME280;5778;47.856;12.154;2023-04-20T10:41:52;95919.88;;;8.28;100.00
11444;BME280;5778;47.856;12.154;2023-04-20T10:44:23;95923.63;;;8.32;100.00
11444;BME280;5778;47.856;12.154;2023-04-20T10:46:52;95919.66;;;8.34;100.00
11444;BME280;5778;47.856;12.154;2023-04-20T10:49:25;95914.88;;;8.31;100.00
11444;BME280;5778;47.856;12.154;2023-04-20T10:51:53;95912.16;;;8.48;100.00
11444;BME280;5778;47.856;12.154;2023-04-20T10:57:44;95905.59;;;9.08;100.00
11444;BME280;5778;47.856;12.154;2023-04-20T11:00:15;95898.56;;;9.60;100.00
11444;BME280;5778;47.856;12.154;2023-04-20T11:02:48;95890.06;;;10.05;100.00
11444;BME280;5778;47.856;12.154;2023-04-20T11:05:16;95889.50;;;10.74;100.00
11444;BME280;5778;47.856;12.154;2023-04-20T11:07:49;95892.75;;;11.06;100.00
11444;BME280;5778;47.856;12.154;2023-04-20T11:10:17;95899.94;;;11.31;100.00
11444;BME280;5778;47.856;12.154;2023-04-20T11:12:44;95889.59;;;11.19;100.00
11444;BME280;5778;47.856;12.154;2023-04-20T11:15:30;95886.91;;;11.49;100.00
11444;BME280;5778;47.856;12.154;2023-04-20T11:18:06;95885.56;;;11.32;100.00
11444;BME280;5778;47.856;12.154;2023-04-20T11:20:33;95887.19;;;11.18;100.00
11444;BME280;5778;47.856;12.154;2023-04-20T11:23:00;95880.53;;;11.20;100.00
11444;BME280;5778;47.856;12.154;2023-04-20T11:25:30;95878.94;;;11.14;100.00
11444;BME280;5778;47.856;12.154;2023-04-20T11:28:04;95867.16;;;10.60;100.00
11444;BME280;5778;47.856;12.154;2023-04-20T11:30:37;95871.72;;;11.05;100.00
11444;BME280;5778;47.856;12.154;2023-04-20T11:33:08;95875.72;;;11.22;100.00
11444;BME280;5778;47.856;12.154;2023-04-20T11:35:35;95869.06;;;10.85;100.00
11444;BME280;5778;47.856;12.154;2023-04-20T11:38:03;95870.66;;;11.11;100.00
11444;BME280;5778;47.856;12.154;2023-04-20T11:40:30;95864.81;;;11.09;100.00
11444;BME280;5778;47.856;12.154;2023-04-20T11:42:57;95867.47;;;10.94;100.00
11444;BME280;5778;47.856;12.154;2023-04-20T11:45:25;95868.50;;;10.78;100.00
11444;BME280;5778;47.856;12.154;2023-04-20T11:47:53;95869.06;;;10.80;100.00
11444;BME280;5778;47.856;12.154;2023-04-20T11:50:22;95864.53;;;10.85;100.00
11444;BME280;5778;47.856;12.154;2023-04-20T11:52:49;95870.13;;;10.89;100.00
11444;BME280;5778;47.856;12.154;2023-04-20T11:55:16;95856.56;;;10.90;100.00
11444;BME280;5778;47.856;12.154;2023-04-20T11:57:43;95856.28;;;10.77;100.00
11444;BME280;5778;47.856;12.154;2023-04-20T12:00:11;95857.06;;;10.67;100.00
11444;BME280;5778;47.856;12.154;2023-04-20T12:02:46;95858.91;;;10.52;100.00
11444;BME280;5778;47.856;12.154;2023-04-20T12:08:37;95867.16;;;10.55;100.00
11444;BME280;5778;47.856;12.154;2023-04-20T12:11:04;95865.03;;;10.67;100.00
11444;BME280;5778;47.856;12.154;2023-04-20T12:16:51;95849.59;;;10.49;100.00
11444;BME280;5778;47.856;12.154;2023-04-20T12:19:18;95854.91;;;10.54;100.00
11444;BME280;5778;47.856;12.154;2023-04-20T12:21:45;95849.34;;;10.66;100.00
11444;BME280;5778;47.856;12.154;2023-04-20T12:24:14;95850.88;;;10.37;100.00
11444;BME280;5778;47.856;12.154;2023-04-20T12:26:41;95845.59;;;10.62;100.00
11444;BME280;5778;47.856;12.154;2023-04-20T12:29:07;95847.78;;;10.75;100.00
11444;BME280;5778;47.856;12.154;2023-04-20T12:31:35;95844.41;;;10.13;100.00
11444;BME280;5778;47.856;12.154;2023-04-20T12:34:02;95832.22;;;10.22;100.00
11444;BME280;5778;47.856;12.154;2023-04-20T12:36:30;95826.19;;;9.85;100.00
11444;BME280;5778;47.856;12.154;2023-04-20T12:38:59;95827.97;;;10.16;100.00
11444;BME280;5778;47.856;12.154;2023-04-20T12:41:27;95821.84;;;10.15;100.00
11444;BME280;5778;47.856;12.154;2023-04-20T12:43:54;95817.63;;;10.29;100.00
11444;BME280;5778;47.856;12.154;2023-04-20T12:46:21;95810.50;;;10.60;100.00
11444;BME280;5778;47.856;12.154;2023-04-20T12:48:48;95795.63;;;11.19;100.00
11444;BME280;5778;47.856;12.154;2023-04-20T12:51:15;95795.09;;;10.72;100.00
11444;BME280;5778;47.856;12.154;2023-04-20T12:54:11;95798.16;;;10.04;100.00
11444;BME280;5778;47.856;12.154;2023-04-20T12:56:40;95801.66;;;10.14;100.00
11444;BME280;5778;47.856;12.154;2023-04-20T12:59:06;95811.50;;;10.29;100.00
11444;BME280;5778;47.856;12.154;2023-04-20T13:01:33;95804.25;;;10.04;100.00
11444;BME280;5778;47.856;12.154;2023-04-20T13:04:29;95803.22;;;9.49;100.00
11444;BME280;5778;47.856;12.154;2023-04-20T13:06:56;95798.63;;;9.34;100.00
11444;BME280;5778;47.856;12.154;2023-04-20T13:09:22;95806.38;;;9.46;100.00
11444;BME280;5778;47.856;12.154;2023-04-20T13:11:52;95799.78;;;9.53;100.00
11444;BME280;5778;47.856;12.154;2023-04-20T13:14:37;95802.47;;;9.17;100.00
11444;BME280;5778;47.856;12.154;2023-04-20T13:17:04;95802.31;;;9.33;100.00
11444;BME280;5778;47.856;12.154;2023-04-20T13:19:31;95798.63;;;9.34;100.00
11444;BME280;5778;47.856;12.154;2023-04-20T13:21:58;95794.66;;;8.64;100.00